Time;durP1;ratioP1;P1;durP2;ratioP2;P2;SDS_P1;SDS_P2;PMS_P1;PMS_P2;Temp;Humidity;BMP_temperature;BMP_pressure;BME280_temperature;BME280_humidity;BME280_pressure;Samples;Min_cycle;Max_cycle;Signal;HPM_P1;HPM_P2
2022/10/07 00:00:22;;;;;;;21.67;9.10;;;;;;;12.24;100.00;102677.50;2074020;28;20830;-60
2022/10/07 00:01:23;;;;;;;21.33;9.20;;;;;;;12.25;100.00;102676.31;2073944;28;20829;-60
2022/10/07 00:02:23;;;;;;;18.27;8.67;;;;;;;12.25;100.00;102670.75;2074219;28;20192;-60
2022/10/07 00:03:25;;;;;;;17.47;7.90;;;;;;;12.22;100.00;102663.19;2074003;28;20197;-59
2022/10/07 00:04:26;;;;;;;14.63;7.80;;;;;;;11.48;100.00;102543.53;2074026;28;20288;-59
2022/10/07 00:05:27;;;;;;;11.17;7.90;;;;;;;12.23;100.00;102675.88;2074207;28;21012;-60
2022/10/07 00:06:27;;;;;;;12.23;7.13;;;;;;;12.21;100.00;102659.63;2074047;28;20194;-60
2022/10/07 00:07:28;;;;;;;10.17;6.10;;;;;;;12.18;100.00;102660.41;2074025;28;20216;-59
2022/10/07 00:08:28;;;;;;;13.20;7.87;;;;;;;12.17;100.00;102658.81;2073960;28;20219;-60
2022/10/07 00:09:29;;;;;;;11.83;7.80;;;;;;;12.16;100.00;102659.22;2074036;28;20573;-60
2022/10/07 00:10:30;;;;;;;10.03;7.27;;;;;;;12.15;100.00;102663.19;2073685;28;20264;-60
2022/10/07 00:11:30;;;;;;;10.10;7.53;;;;;;;12.14;100.00;102651.25;2073977;28;20189;-59
2022/10/07 00:12:32;;;;;;;12.07;7.37;;;;;;;12.14;100.00;102653.25;2066271;28;20803;-60
2022/10/07 00:13:33;;;;;;;11.07;7.23;;;;;;;12.11;100.00;102648.47;2072464;28;20561;-60
2022/10/07 00:14:33;;;;;;;12.37;7.57;;;;;;;11.97;100.00;102629.78;2074083;28;20435;-60
2022/10/07 00:15:34;;;;;;;12.57;7.60;;;;;;;12.07;100.00;102653.22;2070083;28;20676;-60
2022/10/07 00:16:37;;;;;;;13.00;7.50;;;;;;;12.03;100.00;102661.56;2072305;28;20247;-60
2022/10/07 00:17:37;;;;;;;9.27;7.00;;;;;;;12.01;100.00;102652.84;2073950;28;20197;-60
2022/10/07 00:18:40;;;;;;;11.70;6.80;;;;;;;11.78;100.00;102616.25;2073903;28;20560;-60
2022/10/07 00:19:40;;;;;;;10.50;6.53;;;;;;;12.00;100.00;102658.78;2074022;28;20189;-59
2022/10/07 00:20:40;;;;;;;12.00;6.67;;;;;;;11.98;100.00;102644.47;2074086;28;20635;-59
2022/10/07 00:21:41;;;;;;;11.50;6.57;;;;;;;11.99;100.00;102651.63;2074014;28;20240;-60
2022/10/07 00:22:42;;;;;;;14.73;6.97;;;;;;;11.97;100.00;102646.47;2073798;28;20319;-60
2022/10/07 00:23:44;;;;;;;9.17;6.10;;;;;;;11.96;100.00;102650.44;2073988;28;20666;-60
2022/10/07 00:24:45;;;;;;;6.97;5.63;;;;;;;11.96;100.00;102652.41;2068809;28;20426;-60
2022/10/07 00:25:45;;;;;;;8.53;6.40;;;;;;;11.95;100.00;102648.81;2069911;28;20428;-60
2022/10/07 00:26:45;;;;;;;11.10;6.77;;;;;;;11.95;100.00;102650.81;2074050;28;20188;-60
2022/10/07 00:27:46;;;;;;;9.13;6.40;;;;;;;11.94;100.00;102650.03;2073847;28;20567;-60
2022/10/07 00:28:47;;;;;;;9.27;6.40;;;;;;;11.96;100.00;102649.63;2073883;28;20188;-60
2022/10/07 00:29:47;;;;;;;9.50;6.10;;;;;;;11.96;100.00;102653.22;2069947;28;20180;-59
2022/10/07 00:30:55;;;;;;;9.63;6.33;;;;;;;11.36;100.00;102551.41;2069277;28;20273;-60
2022/10/07 00:31:56;;;;;;;10.07;6.10;;;;;;;11.97;100.00;102654.81;2072523;28;20189;-59
2022/10/07 00:32:56;;;;;;;12.63;6.50;;;;;;;11.94;100.00;102657.56;2073864;28;20416;-60
2022/10/07 00:33:57;;;;;;;9.57;6.20;;;;;;;11.90;100.00;102654.78;2073641;28;20630;-60
2022/10/07 00:34:58;;;;;;;11.60;6.70;;;;;;;11.88;100.00;102653.59;2073616;28;20680;-60
2022/10/07 00:35:58;;;;;;;10.83;5.83;;;;;;;11.87;100.00;102655.56;2073889;28;20810;-60
2022/10/07 00:36:59;;;;;;;9.80;6.77;;;;;;;11.86;100.00;102653.97;2073840;28;20178;-60
2022/10/07 00:37:59;;;;;;;8.60;5.43;;;;;;;11.88;100.00;102656.38;2073772;28;20209;-60
2022/10/07 00:39:12;;;;;;;9.43;6.03;;;;;;;11.49;100.00;102595.13;2073964;28;20173;-60
2022/10/07 00:40:13;;;;;;;7.07;5.07;;;;;;;11.87;100.00;102658.34;2073295;28;20210;-60
2022/10/07 00:41:18;;;;;;;12.23;5.93;;;;;;;11.87;100.00;102657.53;2073345;28;20911;-60
2022/10/07 00:42:18;;;;;;;10.60;6.30;;;;;;;11.86;100.00;102659.53;2073718;28;20178;-60
2022/10/07 00:43:19;;;;;;;11.50;5.97;;;;;;;11.85;100.00;102660.72;2073569;28;20472;-60
2022/10/07 00:44:32;;;;;;;8.87;5.80;;;;;;;11.84;100.00;102658.34;2067980;28;20633;-59
2022/10/07 00:45:34;;;;;;;9.33;5.53;;;;;;;11.69;100.00;102637.25;2073263;28;20221;-60
2022/10/07 00:46:38;;;;;;;12.00;5.90;;;;;;;11.84;100.00;102659.13;2073474;28;20455;-60
2022/10/07 00:47:40;;;;;;;10.13;5.83;;;;;;;11.85;100.00;102660.72;2068959;28;20430;-60
2022/10/07 00:48:44;;;;;;;8.43;6.23;;;;;;;11.75;100.00;102644.81;2073448;28;20484;-60
2022/10/07 00:50:01;;;;;;;7.73;5.90;;;;;;;11.83;100.00;102657.53;2073750;28;20967;-61
2022/10/07 00:51:02;;;;;;;9.73;6.10;;;;;;;11.82;100.00;102657.91;2073632;28;22344;-60
2022/10/07 00:52:03;;;;;;;8.90;5.77;;;;;;;11.82;100.00;102653.16;2073712;28;20421;-60
2022/10/07 00:53:03;;;;;;;7.43;5.37;;;;;;;11.81;100.00;102654.38;2073685;28;20416;-59
2022/10/07 00:54:12;;;;;;;9.67;5.57;;;;;;;11.81;100.00;102642.44;2068746;28;20200;-60
2022/10/07 00:55:18;;;;;;;9.03;5.37;;;;;;;11.78;100.00;102651.59;2073654;28;20662;-60
2022/10/07 00:56:19;;;;;;;8.13;5.43;;;;;;;11.40;100.00;102593.88;2073713;28;20839;-60
2022/10/07 00:57:25;;;;;;;8.10;5.10;;;;;;;11.76;100.00;102651.97;2070651;28;20430;-60
2022/10/07 00:58:27;;;;;;;9.73;4.90;;;;;;;11.75;100.00;102649.56;2073187;28;20182;-61
2022/10/07 00:59:27;;;;;;;8.87;5.50;;;;;;;11.75;100.00;102638.47;2073372;28;20455;-60
2022/10/07 01:00:29;;;;;;;8.73;5.87;;;;;;;11.74;100.00;102643.22;2070521;28;20417;-60
2022/10/07 01:01:30;;;;;;;6.13;4.97;;;;;;;11.75;100.00;102652.34;2068965;28;20677;-60
2022/10/07 01:02:30;;;;;;;11.53;5.20;;;;;;;11.74;100.00;102654.31;2073715;28;20468;-60
2022/10/07 01:03:34;;;;;;;6.83;4.67;;;;;;;11.73;100.00;102649.19;2073688;28;20511;-60
2022/10/07 01:04:35;;;;;;;8.53;5.43;;;;;;;11.58;100.00;102636.41;2073564;28;20566;-60
2022/10/07 01:05:36;;;;;;;8.07;5.20;;;;;;;11.71;100.00;102651.53;2071052;28;20481;-59
2022/10/07 01:06:38;;;;;;;7.97;5.50;;;;;;;11.65;100.00;102636.44;2073476;28;20435;-60
2022/10/07 01:07:40;;;;;;;7.73;5.10;;;;;;;11.62;100.00;102637.22;2073653;28;20185;-60
2022/10/07 01:08:43;;;;;;;7.63;5.00;;;;;;;11.70;100.00;102653.53;2073630;28;20841;-60
2022/10/07 01:09:45;;;;;;;6.87;4.60;;;;;;;11.70;100.00;102647.97;2073464;28;20952;-60
2022/10/07 01:11:12;;;;;;;7.17;5.10;;;;;;;11.66;100.00;102652.72;2071549;28;20428;-59
2022/10/07 01:13:04;;;;;;;10.43;4.80;;;;;;;11.70;100.00;102650.75;2072258;28;21019;-59
2022/10/07 01:14:10;;;;;;;9.47;4.87;;;;;;;11.63;100.00;102655.50;2069795;28;20478;-60
2022/10/07 01:15:23;;;;;;;9.90;5.07;;;;;;;11.60;100.00;102656.25;2066180;28;20934;-60
2022/10/07 01:16:48;;;;;;;10.13;4.70;;;;;;;11.60;100.00;102654.28;2072421;28;20445;-59
2022/10/07 01:17:52;;;;;;;12.90;5.67;;;;;;;11.60;100.00;102650.72;2071054;28;20483;-59
2022/10/07 01:18:55;;;;;;;14.57;5.73;;;;;;;11.60;100.00;102656.25;2072424;28;20424;-59
2022/10/07 01:19:55;;;;;;;11.07;5.60;;;;;;;11.59;100.00;102649.91;2073042;28;20455;-60
2022/10/07 01:21:05;;;;;;;12.63;5.67;;;;;;;11.58;100.00;102653.84;2073177;28;20431;-59
2022/10/07 01:22:24;;;;;;;18.63;6.57;;;;;;;11.58;100.00;102661.38;2073351;28;20181;-59
2022/10/07 01:23:55;;;;;;;7.73;5.33;;;;;;;11.58;100.00;102659.38;2071206;28;20498;-60
2022/10/07 01:25:37;;;;;;;12.63;6.07;;;;;;;11.56;100.00;102661.78;2071686;28;20463;-59
2022/10/07 01:26:50;;;;;;;10.70;5.67;;;;;;;11.53;100.00;102665.31;2062276;28;21005;-60
2022/10/07 01:27:58;;;;;;;8.83;5.40;;;;;;;11.52;100.00;102660.94;2072427;28;20968;-59
2022/10/07 01:29:08;;;;;;;7.50;5.17;;;;;;;11.13;100.00;102601.66;2073176;28;20428;-60
2022/10/07 01:30:11;;;;;;;8.03;5.53;;;;;;;11.51;100.00;102669.66;2073462;28;20482;-59
2022/10/07 01:31:16;;;;;;;8.57;5.17;;;;;;;11.53;100.00;102667.31;2072697;28;20429;-60
2022/10/07 01:32:31;;;;;;;10.87;5.13;;;;;;;11.50;100.00;102655.00;2068519;28;20418;-60
2022/10/07 01:33:33;;;;;;;9.47;5.53;;;;;;;11.56;100.00;102674.84;2067741;28;20413;-60
2022/10/07 01:34:36;;;;;;;7.60;5.30;;;;;;;11.29;100.00;102631.88;2073213;28;20527;-60
2022/10/07 01:35:41;;;;;;;10.13;4.87;;;;;;;11.56;100.00;102664.56;2073503;28;20411;-60
2022/10/07 01:36:49;;;;;;;8.17;4.80;;;;;;;11.48;100.00;102651.03;2072042;28;20519;-60
2022/10/07 01:37:55;;;;;;;6.97;4.67;;;;;;;11.39;100.00;102634.72;2073423;28;20777;-59
2022/10/07 01:39:01;;;;;;;8.90;4.83;;;;;;;11.58;100.00;102667.72;2073028;28;20432;-59
2022/10/07 01:40:08;;;;;;;9.77;4.43;;;;;;;11.56;100.00;102664.56;2073417;28;20426;-59
2022/10/07 01:41:16;;;;;;;9.97;4.80;;;;;;;11.55;100.00;102659.38;2073263;28;20793;-59
2022/10/07 01:42:18;;;;;;;8.43;4.83;;;;;;;11.52;100.00;102652.63;2072661;28;20456;-60
2022/10/07 01:43:21;;;;;;;8.53;4.97;;;;;;;11.60;100.00;102667.38;2073352;28;21032;-59
2022/10/07 01:44:22;;;;;;;9.60;5.20;;;;;;;11.48;100.00;102651.81;2072984;28;20439;-59
2022/10/07 01:45:26;;;;;;;8.40;4.33;;;;;;;11.59;100.00;102663.78;2065430;28;20456;-60
2022/10/07 01:46:27;;;;;;;5.40;3.93;;;;;;;11.60;100.00;102675.69;2073404;28;20274;-60
2022/10/07 01:47:28;;;;;;;8.40;4.50;;;;;;;11.19;100.00;102602.09;2072863;28;20447;-59
2022/10/07 01:48:30;;;;;;;7.33;4.50;;;;;;;11.36;100.00;102632.72;2072893;28;20229;-59
2022/10/07 01:49:30;;;;;;;6.37;4.40;;;;;;;11.61;100.00;102666.97;2073228;28;20204;-60
2022/10/07 01:50:32;;;;;;;7.67;4.20;;;;;;;11.63;100.00;102672.94;2072783;28;20601;-59
2022/10/07 01:51:36;;;;;;;7.77;4.40;;;;;;;11.63;100.00;102674.94;2073301;28;20647;-60
2022/10/07 01:52:55;;;;;;;11.50;4.53;;;;;;;11.64;100.00;102666.19;2073316;28;20419;-59
2022/10/07 01:54:14;;;;;;;6.77;4.20;;;;;;;11.64;100.00;102673.75;2072762;28;20943;-59
2022/10/07 01:55:27;;;;;;;8.90;4.53;;;;;;;11.62;100.00;102660.22;2072849;28;20778;-59
2022/10/07 01:57:04;;;;;;;8.20;4.13;;;;;;;11.61;100.00;102674.50;2073101;28;20420;-60
2022/10/07 01:58:37;;;;;;;6.67;3.87;;;;;;;11.58;100.00;102675.28;2073238;28;20421;-60
2022/10/07 01:59:58;;;;;;;6.40;3.97;;;;;;;11.56;100.00;102664.56;2071684;28;20441;-59
2022/10/07 02:01:16;;;;;;;7.57;3.63;;;;;;;11.53;100.00;102678.44;2073348;28;20470;-60
2022/10/07 02:02:20;;;;;;;5.87;4.13;;;;;;;11.52;100.00;102672.06;2072847;28;20503;-59
2022/10/07 02:03:30;;;;;;;10.07;4.87;;;;;;;11.52;100.00;102668.50;2068089;28;20425;-60
2022/10/07 02:04:56;;;;;;;6.93;4.57;;;;;;;11.52;100.00;102672.06;2073145;28;20443;-60
2022/10/07 02:06:26;;;;;;;8.10;4.43;;;;;;;11.52;100.00;102671.28;2070945;28;20452;-60
2022/10/07 02:07:45;;;;;;;7.37;4.10;;;;;;;11.51;100.00;102667.69;2067987;28;20911;-60
2022/10/07 02:08:49;;;;;;;10.73;4.70;;;;;;;11.49;100.00;102677.59;2073013;28;20845;-60
2022/10/07 02:10:15;;;;;;;8.57;4.17;;;;;;;11.46;100.00;102665.28;2072913;28;20965;-60
2022/10/07 02:11:18;;;;;;;8.20;4.70;;;;;;;11.44;100.00;102673.22;2072362;28;20447;-60
2022/10/07 02:12:43;;;;;;;9.00;4.03;;;;;;;11.44;100.00;102677.97;2073128;28;20519;-60
2022/10/07 02:13:47;;;;;;;10.07;4.10;;;;;;;11.42;100.00;102666.47;2069516;28;20996;-60
2022/10/07 02:15:18;;;;;;;7.30;4.10;;;;;;;11.42;100.00;102666.47;2073097;28;20971;-61
2022/10/07 02:16:31;;;;;;;8.07;4.10;;;;;;;11.41;100.00;102673.19;2073204;28;20938;-59
2022/10/07 02:17:36;;;;;;;9.73;4.33;;;;;;;11.40;100.00;102675.19;2068670;28;20600;-59
2022/10/07 02:18:40;;;;;;;12.20;4.77;;;;;;;11.30;100.00;102664.81;2071365;28;20439;-59
2022/10/07 02:19:45;;;;;;;10.23;5.10;;;;;;;11.37;100.00;102677.94;2070569;28;20444;-60
2022/10/07 02:20:50;;;;;;;12.53;4.97;;;;;;;11.37;100.00;102678.72;2072045;28;20471;-60
2022/10/07 02:21:53;;;;;;;13.30;4.97;;;;;;;11.34;100.00;102679.53;2070305;28;20467;-60
2022/10/07 02:22:56;;;;;;;15.03;4.73;;;;;;;11.32;100.00;102679.09;2073051;28;20506;-59
2022/10/07 02:23:59;;;;;;;12.67;4.43;;;;;;;11.32;100.00;102676.31;2072969;28;20428;-59
2022/10/07 02:24:59;;;;;;;10.93;4.27;;;;;;;11.23;100.00;102672.31;2073092;28;20926;-59
2022/10/07 02:26:02;;;;;;;9.87;4.53;;;;;;;11.29;100.00;102685.44;2073099;28;20874;-60
2022/10/07 02:27:07;;;;;;;9.93;4.47;;;;;;;11.28;100.00;102688.59;2073218;28;20316;-59
2022/10/07 02:28:10;;;;;;;12.80;4.63;;;;;;;11.28;100.00;102694.16;2071546;28;20424;-60
2022/10/07 02:29:15;;;;;;;8.60;4.33;;;;;;;11.28;100.00;102688.59;2073181;28;20530;-59
2022/10/07 02:30:18;;;;;;;14.33;4.63;;;;;;;11.26;100.00;102686.19;2072965;28;20512;-59
2022/10/07 02:31:24;;;;;;;15.87;4.90;;;;;;;11.19;100.00;102677.84;2065129;28;20953;-60
2022/10/07 02:32:26;;;;;;;9.57;4.30;;;;;;;11.06;100.00;102650.81;2072567;28;20442;-60
2022/10/07 02:33:29;;;;;;;9.80;4.33;;;;;;;11.23;100.00;102686.97;2073485;28;20452;-60
2022/10/07 02:34:31;;;;;;;10.80;4.27;;;;;;;11.22;100.00;102682.59;2073145;28;20509;-60
2022/10/07 02:35:39;;;;;;;11.10;4.40;;;;;;;11.11;100.00;102672.59;2074601;28;20443;-59
2022/10/07 02:36:49;;;;;;;11.77;4.50;;;;;;;11.21;100.00;102682.97;2074258;28;20511;-59
2022/10/07 02:37:55;;;;;;;8.87;4.37;;;;;;;11.19;100.00;102680.63;2071575;28;20487;-60
2022/10/07 02:38:57;;;;;;;12.73;4.63;;;;;;;11.18;100.00;102676.22;2074667;28;20892;-59
2022/10/07 02:39:57;;;;;;;13.13;4.70;;;;;;;11.16;100.00;102681.38;2069525;28;20429;-60
2022/10/07 02:41:07;;;;;;;9.37;3.97;;;;;;;11.15;100.00;102679.78;2074507;28;20440;-59
2022/10/07 02:42:25;;;;;;;10.10;4.40;;;;;;;11.14;100.00;102685.72;2074360;28;20193;-60
2022/10/07 02:43:56;;;;;;;7.50;3.70;;;;;;;11.12;100.00;102682.56;2070801;28;20441;-59
2022/10/07 02:45:12;;;;;;;6.43;3.83;;;;;;;10.66;100.00;102618.41;2070026;28;20491;-59
2022/10/07 02:46:19;;;;;;;7.27;3.77;;;;;;;11.05;100.00;102683.28;2074385;28;20431;-59
2022/10/07 02:48:00;;;;;;;5.93;3.90;;;;;;;11.01;100.00;102687.25;2074533;28;20467;-59
2022/10/07 02:49:05;;;;;;;7.53;3.87;;;;;;;10.61;100.00;102627.09;2065163;28;20464;-60
2022/10/07 02:50:11;;;;;;;6.17;3.43;;;;;;;10.90;100.00;102673.28;2064413;28;20540;-60
2022/10/07 02:51:18;;;;;;;6.00;3.30;;;;;;;10.95;100.00;102683.22;2065459;28;20416;-59
2022/10/07 02:52:21;;;;;;;6.00;3.70;;;;;;;10.94;100.00;102679.66;2064926;28;20427;-60
2022/10/07 02:53:25;;;;;;;6.70;3.60;;;;;;;10.48;100.00;102613.91;2065716;28;20441;-59
2022/10/07 02:54:33;;;;;;;4.90;3.57;;;;;;;10.92;100.00;102687.53;2068204;28;20924;-60
2022/10/07 02:55:34;;;;;;;6.67;3.37;;;;;;;10.88;100.00;102683.16;2074580;28;20440;-60
2022/10/07 02:56:37;;;;;;;5.50;4.03;;;;;;;10.88;100.00;102683.16;2074157;28;20510;-60
2022/10/07 02:57:50;;;;;;;8.00;3.70;;;;;;;10.61;100.00;102654.03;2074387;28;20502;-59
2022/10/07 02:58:51;;;;;;;5.57;3.00;;;;;;;10.78;100.00;102681.91;2073871;28;20524;-60
2022/10/07 02:59:53;;;;;;;8.70;3.60;;;;;;;10.75;100.00;102684.63;2074342;28;20973;-60
2022/10/07 03:00:59;;;;;;;6.63;3.43;;;;;;;10.70;100.00;102677.47;2074065;28;20940;-59
2022/10/07 03:02:04;;;;;;;10.83;3.60;;;;;;;10.68;100.00;102690.94;2069158;28;20425;-60
2022/10/07 03:03:04;;;;;;;7.07;3.53;;;;;;;10.65;100.00;102679.81;2074601;28;20499;-60
2022/10/07 03:04:06;;;;;;;7.27;3.30;;;;;;;10.63;100.00;102687.72;2074084;28;20450;-60
2022/10/07 03:05:08;;;;;;;6.03;3.40;;;;;;;10.61;100.00;102688.09;2073154;28;20320;-59
2022/10/07 03:06:08;;;;;;;7.47;4.40;;;;;;;10.60;100.00;102688.50;2074012;28;20432;-60
2022/10/07 03:07:12;;;;;;;4.40;3.13;;;;;;;10.52;100.00;102679.31;2074386;28;20503;-60
2022/10/07 03:08:12;;;;;;;6.30;3.50;;;;;;;10.57;100.00;102690.06;2074167;28;20709;-60
2022/10/07 03:09:13;;;;;;;22.40;5.47;;;;;;;10.55;100.00;102686.84;2070268;28;20857;-60
2022/10/07 03:10:14;;;;;;;23.27;6.70;;;;;;;10.56;100.00;102688.44;2074578;28;20678;-60
2022/10/07 03:11:14;;;;;;;26.87;6.63;;;;;;;10.55;100.00;102691.63;2072903;28;20217;-60
2022/10/07 03:12:15;;;;;;;21.33;5.80;;;;;;;10.30;100.00;102649.00;2073965;28;20439;-59
2022/10/07 03:13:16;;;;;;;17.17;5.80;;;;;;;10.53;100.00;102696.72;2073871;28;20185;-60
2022/10/07 03:14:16;;;;;;;17.33;5.30;;;;;;;10.51;100.00;102693.56;2074054;28;20185;-59
2022/10/07 03:15:16;;;;;;;17.93;5.27;;;;;;;10.41;100.00;102674.84;2074515;28;20603;-59
2022/10/07 03:16:17;;;;;;;14.60;5.00;;;;;;;10.49;100.00;102695.91;2067860;28;20201;-60
2022/10/07 03:17:17;;;;;;;7.03;4.30;;;;;;;10.23;100.00;102657.25;2073839;28;20200;-60
2022/10/07 03:18:28;;;;;;;10.13;4.33;;;;;;;10.47;100.00;102689.94;2073608;28;20247;-60
2022/10/07 03:19:28;;;;;;;8.73;4.40;;;;;;;10.46;100.00;102699.44;2074205;28;20639;-60
2022/10/07 03:20:31;;;;;;;7.37;4.50;;;;;;;10.42;100.00;102696.66;2074453;28;20867;-60
2022/10/07 03:21:32;;;;;;;6.43;4.30;;;;;;;10.20;100.00;102667.09;2073820;28;20179;-60
2022/10/07 03:22:33;;;;;;;6.33;4.03;;;;;;;10.39;100.00;102699.34;2074410;28;20487;-60
2022/10/07 03:23:33;;;;;;;5.83;4.10;;;;;;;10.38;100.00;102690.25;2073923;28;20471;-60
2022/10/07 03:24:34;;;;;;;5.80;4.43;;;;;;;10.33;100.00;102676.75;2074344;28;20528;-60
2022/10/07 03:25:34;;;;;;;9.23;4.90;;;;;;;10.35;100.00;102693.00;2074259;28;20197;-60
2022/10/07 03:26:35;;;;;;;8.70;4.70;;;;;;;10.33;100.00;102690.63;2074478;28;20198;-60
2022/10/07 03:27:35;;;;;;;11.37;4.37;;;;;;;10.31;100.00;102689.41;2073508;28;20586;-60
2022/10/07 03:28:36;;;;;;;11.57;5.37;;;;;;;10.28;100.00;102696.50;2073864;28;20655;-60
2022/10/07 03:29:36;;;;;;;8.77;5.13;;;;;;;10.26;100.00;102690.53;2074259;28;20272;-60
2022/10/07 03:30:37;;;;;;;7.63;5.00;;;;;;;10.25;100.00;102700.00;2074318;28;20674;-60
2022/10/07 03:31:38;;;;;;;7.73;4.97;;;;;;;10.24;100.00;102689.34;2074203;28;20196;-59
2022/10/07 03:32:40;;;;;;;7.60;5.07;;;;;;;10.21;100.00;102690.09;2073932;28;20264;-60
2022/10/07 03:33:41;;;;;;;8.50;5.40;;;;;;;10.20;100.00;102694.81;2073596;28;20189;-60
2022/10/07 03:34:41;;;;;;;7.33;5.20;;;;;;;10.18;100.00;102694.41;2072923;28;20420;-60
2022/10/07 03:35:42;;;;;;;6.43;5.00;;;;;;;10.17;100.00;102694.78;2074371;28;20193;-60
2022/10/07 03:36:42;;;;;;;6.73;4.97;;;;;;;10.15;100.00;102697.94;2072683;28;20647;-60
2022/10/07 03:37:42;;;;;;;7.77;5.40;;;;;;;10.14;100.00;102695.56;2070676;28;20192;-60
2022/10/07 03:38:43;;;;;;;11.93;5.13;;;;;;;10.14;100.00;102692.78;2074087;28;20316;-59
2022/10/07 03:39:43;;;;;;;9.73;4.97;;;;;;;10.13;100.00;102699.47;2073993;28;20253;-60
2022/10/07 03:40:44;;;;;;;10.17;4.70;;;;;;;10.11;100.00;102699.06;2074270;28;20618;-60
2022/10/07 03:41:47;;;;;;;8.83;5.37;;;;;;;10.10;100.00;102698.28;2072787;28;20201;-59
2022/10/07 03:42:49;;;;;;;8.87;5.23;;;;;;;10.08;100.00;102699.81;2072237;28;20217;-60
2022/10/07 03:43:49;;;;;;;8.93;4.80;;;;;;;10.08;100.00;102695.09;2072779;28;21020;-59
2022/10/07 03:44:50;;;;;;;8.50;4.60;;;;;;;10.07;100.00;102696.28;2073901;28;20860;-59
2022/10/07 03:45:50;;;;;;;7.67;5.03;;;;;;;10.01;100.00;102686.69;2074141;28;20189;-59
2022/10/07 03:46:51;;;;;;;8.63;4.87;;;;;;;10.02;100.00;102699.34;2073965;28;20197;-60
2022/10/07 03:47:52;;;;;;;8.03;4.87;;;;;;;10.00;100.00;102693.38;2072901;28;20229;-60
2022/10/07 03:48:52;;;;;;;8.67;4.70;;;;;;;10.00;100.00;102698.91;2073747;28;20623;-60
2022/10/07 03:49:54;;;;;;;10.10;4.80;;;;;;;10.00;100.00;102696.16;2074319;28;20196;-59
2022/10/07 03:50:57;;;;;;;8.43;5.20;;;;;;;10.01;100.00;102700.53;2072694;28;20194;-60
2022/10/07 03:51:59;;;;;;;9.13;5.60;;;;;;;10.02;100.00;102701.31;2071936;28;20429;-59
2022/10/07 03:52:59;;;;;;;7.33;4.93;;;;;;;10.03;100.00;102702.91;2074111;28;20931;-59
2022/10/07 03:54:00;;;;;;;6.43;4.40;;;;;;;10.04;100.00;102701.78;2074091;28;20809;-59
2022/10/07 03:55:01;;;;;;;9.07;4.67;;;;;;;10.04;100.00;102715.63;2073676;28;20189;-59
2022/10/07 03:56:01;;;;;;;10.00;5.00;;;;;;;9.98;100.00;102704.03;2074142;28;20220;-59
2022/10/07 03:57:01;;;;;;;9.53;4.80;;;;;;;10.04;100.00;102712.88;2074043;28;20193;-60
2022/10/07 03:58:02;;;;;;;6.87;4.50;;;;;;;10.03;100.00;102709.25;2074088;28;20188;-60
2022/10/07 03:59:02;;;;;;;11.47;5.37;;;;;;;10.02;100.00;102721.50;2071240;28;20182;-59
2022/10/07 04:00:03;;;;;;;26.93;8.17;;;;;;;9.99;100.00;102721.47;2074078;28;20578;-59
2022/10/07 04:01:06;;;;;;;23.83;7.70;;;;;;;9.97;100.00;102735.69;2073863;28;20193;-60
2022/10/07 04:02:06;;;;;;;19.30;6.43;;;;;;;9.97;100.00;102718.28;2073932;28;20193;-59
2022/10/07 04:03:08;;;;;;;17.83;7.00;;;;;;;9.97;100.00;102721.03;2073781;28;20506;-59
2022/10/07 04:04:08;;;;;;;23.40;6.23;;;;;;;9.89;100.00;102711.06;2071723;28;20603;-60
2022/10/07 04:05:09;;;;;;;12.87;6.07;;;;;;;9.96;100.00;102713.91;2073429;28;20502;-60
2022/10/07 04:06:09;;;;;;;10.93;5.57;;;;;;;9.97;100.00;102729.34;2072569;28;20193;-59
2022/10/07 04:07:10;;;;;;;13.13;5.43;;;;;;;9.97;100.00;102716.31;2069114;28;20638;-60
2022/10/07 04:08:14;;;;;;;12.00;5.13;;;;;;;9.99;100.00;102721.47;2073260;28;20278;-59
2022/10/07 04:09:15;;;;;;;15.03;5.33;;;;;;;10.00;100.00;102714.75;2073468;28;20683;-59
2022/10/07 04:10:17;;;;;;;11.90;5.50;;;;;;;10.01;100.00;102721.88;2073938;28;20605;-61
2022/10/07 04:11:18;;;;;;;13.80;5.50;;;;;;;10.00;100.00;102721.06;2073641;28;20176;-59
2022/10/07 04:12:18;;;;;;;18.23;7.03;;;;;;;10.00;100.00;102723.84;2073886;28;20451;-59
2022/10/07 04:13:19;;;;;;;19.37;6.13;;;;;;;10.01;100.00;102724.66;2070269;28;20184;-59
2022/10/07 04:14:19;;;;;;;16.57;6.40;;;;;;;10.00;100.00;102721.06;2073597;28;20231;-59
2022/10/07 04:15:20;;;;;;;10.63;4.53;;;;;;;9.63;100.00;102673.16;2073671;28;20179;-59
2022/10/07 04:16:21;;;;;;;10.13;5.03;;;;;;;9.93;100.00;102729.31;2073249;28;20201;-59
2022/10/07 04:17:23;;;;;;;7.00;4.33;;;;;;;9.91;100.00;102723.38;2072059;28;20191;-59
2022/10/07 04:18:23;;;;;;;11.03;5.03;;;;;;;9.83;100.00;102710.59;2073377;28;20963;-59
2022/10/07 04:19:25;;;;;;;10.03;5.03;;;;;;;9.91;100.00;102719.78;2073393;28;20812;-59
2022/10/07 04:20:25;;;;;;;9.97;5.10;;;;;;;9.93;100.00;102720.19;2071185;28;20187;-58
2022/10/07 04:21:27;;;;;;;10.63;4.77;;;;;;;9.92;100.00;102722.19;2073643;28;20444;-61
2022/10/07 04:22:27;;;;;;;16.07;5.40;;;;;;;9.94;100.00;102721.81;2072324;28;20194;-61
2022/10/07 04:23:27;;;;;;;19.33;5.90;;;;;;;9.91;100.00;102714.25;2074077;28;20517;-61
2022/10/07 04:24:28;;;;;;;15.13;5.50;;;;;;;9.94;100.00;102724.59;2071664;28;20193;-61
2022/10/07 04:25:35;;;;;;;13.47;5.33;;;;;;;9.94;100.00;102725.38;2073027;28;20197;-61
2022/10/07 04:26:35;;;;;;;9.23;4.87;;;;;;;9.93;100.00;102729.31;2072433;28;20220;-61
2022/10/07 04:27:36;;;;;;;13.03;5.70;;;;;;;9.93;100.00;102731.28;2073357;28;20436;-61
2022/10/07 04:28:37;;;;;;;23.57;6.63;;;;;;;9.93;100.00;102734.84;2072892;28;20193;-60
2022/10/07 04:29:37;;;;;;;19.83;6.23;;;;;;;9.94;100.00;102735.66;2070195;28;20234;-60
2022/10/07 04:30:39;;;;;;;26.07;7.37;;;;;;;9.95;100.00;102740.81;2072550;28;20692;-61
2022/10/07 04:31:39;;;;;;;23.83;6.73;;;;;;;9.98;100.00;102744.78;2071791;28;20189;-60
2022/10/07 04:32:40;;;;;;;28.17;7.20;;;;;;;9.98;100.00;102731.75;2073357;28;20434;-60
2022/10/07 04:33:41;;;;;;;27.67;6.53;;;;;;;9.99;100.00;102738.09;2072535;28;20674;-61
2022/10/07 04:34:41;;;;;;;22.40;7.37;;;;;;;10.01;100.00;102738.50;2071767;28;20201;-60
2022/10/07 04:35:43;;;;;;;20.80;6.90;;;;;;;10.02;100.00;102738.13;2073189;28;20441;-60
2022/10/07 04:36:43;;;;;;;20.33;7.83;;;;;;;9.54;100.00;102655.25;2072648;28;20190;-61
2022/10/07 04:37:44;;;;;;;26.53;11.03;;;;;;;10.03;100.00;102734.19;2071764;28;20483;-61
2022/10/07 04:38:49;;;;;;;17.30;10.10;;;;;;;10.04;100.00;102737.78;2073088;28;20181;-61
2022/10/07 04:39:49;;;;;;;19.37;11.33;;;;;;;9.98;100.00;102726.22;2073374;28;20194;-61
2022/10/07 04:40:50;;;;;;;25.33;16.33;;;;;;;10.04;100.00;102741.34;2073224;28;20427;-62
2022/10/07 04:41:53;;;;;;;22.23;12.93;;;;;;;10.05;100.00;102737.38;2073038;28;20206;-62
2022/10/07 04:44:12;;;;;;;21.48;10.73;;;;;;;10.04;100.00;102741.34;2072406;28;20424;-62
2022/10/07 04:45:13;;;;;;;22.10;10.13;;;;;;;9.94;100.00;102732.91;2070528;28;20272;-62
2022/10/07 04:46:14;;;;;;;16.73;7.17;;;;;;;10.05;100.00;102740.16;2071262;28;20184;-63
2022/10/07 04:47:14;;;;;;;18.70;10.40;;;;;;;10.06;100.00;102743.75;2072126;28;20659;-62
2022/10/07 04:48:20;;;;;;;17.97;10.73;;;;;;;10.05;100.00;102742.94;2071343;28;20196;-62
2022/10/07 04:49:20;;;;;;;21.20;10.63;;;;;;;10.07;100.00;102743.38;2073064;28;20178;-62
2022/10/07 04:50:20;;;;;;;14.10;9.27;;;;;;;10.08;100.00;102744.16;2072566;28;20455;-61
2022/10/07 04:51:21;;;;;;;17.73;8.83;;;;;;;10.09;100.00;102752.09;2073008;28;20623;-62
2022/10/07 04:52:22;;;;;;;15.37;8.37;;;;;;;10.09;100.00;102751.31;2071453;28;20196;-62
2022/10/07 04:53:22;;;;;;;24.03;8.77;;;;;;;10.11;100.00;102751.72;2071870;28;20189;-62
2022/10/07 04:54:23;;;;;;;36.67;13.70;;;;;;;10.11;100.00;102751.72;2073128;28;20200;-62
2022/10/07 04:55:25;;;;;;;48.77;29.40;;;;;;;10.11;100.00;102748.94;2071805;28;20258;-61
2022/10/07 04:56:27;;;;;;;37.60;22.70;;;;;;;10.10;100.00;102753.69;2071991;28;20904;-62